sensor_id;sensor_type;location;lat;lon;timestamp;P1;durP1;ratioP1;P2;durP2;ratioP2
35552;SDS011;21656;46.054;13.614;2022-12-18T08:26:00;16.38;;;8.13;;
35552;SDS011;21656;46.054;13.614;2022-12-18T08:28:26;13.88;;;7.47;;
35552;SDS011;21656;46.054;13.614;2022-12-18T08:30:51;14.73;;;7.32;;
35552;SDS011;21656;46.054;13.614;2022-12-18T08:33:17;13.43;;;7.00;;
35552;SDS011;21656;46.054;13.614;2022-12-18T08:35:42;13.18;;;6.82;;
35552;SDS011;21656;46.054;13.614;2022-12-18T08:38:08;16.17;;;8.38;;
35552;SDS011;21656;46.054;13.614;2022-12-18T08:40:33;15.25;;;7.60;;
35552;SDS011;21656;46.054;13.614;2022-12-18T08:42:59;15.88;;;8.30;;
35552;SDS011;21656;46.054;13.614;2022-12-18T08:45:43;13.90;;;7.47;;
35552;SDS011;21656;46.054;13.614;2022-12-18T08:48:08;14.15;;;7.53;;
35552;SDS011;21656;46.054;13.614;2022-12-18T08:50:34;14.90;;;8.18;;
35552;SDS011;21656;46.054;13.614;2022-12-18T08:53:00;13.68;;;7.30;;
35552;SDS011;21656;46.054;13.614;2022-12-18T08:55:25;15.13;;;8.52;;
35552;SDS011;21656;46.054;13.614;2022-12-18T08:57:51;14.50;;;8.00;;
35552;SDS011;21656;46.054;13.614;2022-12-18T09:00:16;13.70;;;7.35;;
35552;SDS011;21656;46.054;13.614;2022-12-18T09:02:42;14.25;;;7.57;;
35552;SDS011;21656;46.054;13.614;2022-12-18T09:05:07;20.50;;;9.85;;
35552;SDS011;21656;46.054;13.614;2022-12-18T09:07:33;13.00;;;7.32;;
35552;SDS011;21656;46.054;13.614;2022-12-18T09:10:00;14.55;;;7.70;;
35552;SDS011;21656;46.054;13.614;2022-12-18T09:12:26;12.20;;;6.75;;
35552;SDS011;21656;46.054;13.614;2022-12-18T09:14:51;15.52;;;7.57;;
35552;SDS011;21656;46.054;13.614;2022-12-18T09:17:17;13.00;;;7.47;;
35552;SDS011;21656;46.054;13.614;2022-12-18T09:19:42;13.32;;;7.07;;
35552;SDS011;21656;46.054;13.614;2022-12-18T09:22:08;11.07;;;6.75;;
35552;SDS011;21656;46.054;13.614;2022-12-18T09:24:34;11.80;;;7.15;;
35552;SDS011;21656;46.054;13.614;2022-12-18T09:27:00;11.30;;;6.88;;
35552;SDS011;21656;46.054;13.614;2022-12-18T09:29:25;14.23;;;7.55;;
35552;SDS011;21656;46.054;13.614;2022-12-18T09:31:53;12.98;;;7.78;;
35552;SDS011;21656;46.054;13.614;2022-12-18T09:34:18;12.32;;;7.05;;
35552;SDS011;21656;46.054;13.614;2022-12-18T09:36:46;12.57;;;6.95;;
35552;SDS011;21656;46.054;13.614;2022-12-18T09:39:12;11.93;;;7.57;;
35552;SDS011;21656;46.054;13.614;2022-12-18T09:41:45;11.52;;;6.78;;
35552;SDS011;21656;46.054;13.614;2022-12-18T09:46:40;14.00;;;7.03;;
35552;SDS011;21656;46.054;13.614;2022-12-18T09:49:11;13.70;;;6.95;;
35552;SDS011;21656;46.054;13.614;2022-12-18T09:51:50;12.32;;;7.28;;
35552;SDS011;21656;46.054;13.614;2022-12-18T09:54:35;11.75;;;6.70;;
35552;SDS011;21656;46.054;13.614;2022-12-18T09:57:18;15.45;;;7.82;;
35552;SDS011;21656;46.054;13.614;2022-12-18T09:59:51;12.35;;;6.57;;
35552;SDS011;21656;46.054;13.614;2022-12-18T10:02:25;12.63;;;7.18;;
35552;SDS011;21656;46.054;13.614;2022-12-18T10:10:57;12.50;;;6.43;;
35552;SDS011;21656;46.054;13.614;2022-12-18T10:13:55;13.63;;;7.53;;
35552;SDS011;21656;46.054;13.614;2022-12-18T10:19:17;12.20;;;7.25;;
35552;SDS011;21656;46.054;13.614;2022-12-18T10:24:41;18.02;;;9.68;;
35552;SDS011;21656;46.054;13.614;2022-12-18T10:27:16;14.20;;;7.53;;
35552;SDS011;21656;46.054;13.614;2022-12-18T10:29:48;12.02;;;7.63;;
35552;SDS011;21656;46.054;13.614;2022-12-18T10:32:16;14.13;;;7.82;;
35552;SDS011;21656;46.054;13.614;2022-12-18T10:34:51;13.52;;;7.78;;
35552;SDS011;21656;46.054;13.614;2022-12-18T10:37:19;13.15;;;7.53;;
35552;SDS011;21656;46.054;13.614;2022-12-18T10:40:33;20.25;;;11.15;;
35552;SDS011;21656;46.054;13.614;2022-12-18T10:42:39;19.73;;;10.52;;
35552;SDS011;21656;46.054;13.614;2022-12-18T10:45:12;18.10;;;10.35;;
35552;SDS011;21656;46.054;13.614;2022-12-18T10:47:46;18.77;;;10.40;;
35552;SDS011;21656;46.054;13.614;2022-12-18T10:50:49;15.38;;;8.80;;
35552;SDS011;21656;46.054;13.614;2022-12-18T10:53:13;17.45;;;10.65;;
35552;SDS011;21656;46.054;13.614;2022-12-18T10:55:45;20.65;;;12.13;;
35552;SDS011;21656;46.054;13.614;2022-12-18T11:06:09;101.18;;;71.18;;
35552;SDS011;21656;46.054;13.614;2022-12-18T11:08:39;70.70;;;44.95;;
35552;SDS011;21656;46.054;13.614;2022-12-18T11:11:19;78.38;;;49.60;;
35552;SDS011;21656;46.054;13.614;2022-12-18T11:16:20;20.48;;;12.75;;
35552;SDS011;21656;46.054;13.614;2022-12-18T11:18:46;23.08;;;14.38;;
35552;SDS011;21656;46.054;13.614;2022-12-18T11:21:12;38.95;;;24.90;;
35552;SDS011;21656;46.054;13.614;2022-12-18T11:24:12;23.67;;;14.88;;
35552;SDS011;21656;46.054;13.614;2022-12-18T11:26:43;27.83;;;17.20;;
35552;SDS011;21656;46.054;13.614;2022-12-18T11:29:10;18.58;;;11.65;;
35552;SDS011;21656;46.054;13.614;2022-12-18T11:31:42;18.35;;;11.18;;
35552;SDS011;21656;46.054;13.614;2022-12-18T11:34:16;15.15;;;9.13;;
35552;SDS011;21656;46.054;13.614;2022-12-18T11:36:47;17.40;;;10.95;;
35552;SDS011;21656;46.054;13.614;2022-12-18T11:39:20;16.08;;;9.60;;
35552;SDS011;21656;46.054;13.614;2022-12-18T11:45:15;16.55;;;9.20;;
35552;SDS011;21656;46.054;13.614;2022-12-18T11:53:02;14.02;;;8.13;;
35552;SDS011;21656;46.054;13.614;2022-12-18T11:55:39;14.05;;;7.88;;
35552;SDS011;21656;46.054;13.614;2022-12-18T12:06:24;13.55;;;6.95;;
35552;SDS011;21656;46.054;13.614;2022-12-18T12:09:12;14.82;;;7.15;;
35552;SDS011;21656;46.054;13.614;2022-12-18T12:12:02;11.60;;;6.70;;
35552;SDS011;21656;46.054;13.614;2022-12-18T12:14:56;15.23;;;6.82;;
35552;SDS011;21656;46.054;13.614;2022-12-18T12:23:11;13.65;;;7.40;;
35552;SDS011;21656;46.054;13.614;2022-12-18T12:25:52;12.25;;;7.22;;
35552;SDS011;21656;46.054;13.614;2022-12-18T12:39:23;10.13;;;6.18;;
35552;SDS011;21656;46.054;13.614;2022-12-18T12:42:04;12.27;;;6.95;;
35552;SDS011;21656;46.054;13.614;2022-12-18T12:44:54;11.40;;;6.50;;
35552;SDS011;21656;46.054;13.614;2022-12-18T12:47:28;10.27;;;6.32;;
35552;SDS011;21656;46.054;13.614;2022-12-18T12:49:59;9.40;;;5.93;;
35552;SDS011;21656;46.054;13.614;2022-12-18T12:52:39;11.45;;;6.75;;
35552;SDS011;21656;46.054;13.614;2022-12-18T12:55:24;11.60;;;6.53;;
35552;SDS011;21656;46.054;13.614;2022-12-18T12:58:06;11.68;;;6.20;;
35552;SDS011;21656;46.054;13.614;2022-12-18T13:00:40;13.38;;;6.70;;
35552;SDS011;21656;46.054;13.614;2022-12-18T13:06:12;10.68;;;6.07;;
35552;SDS011;21656;46.054;13.614;2022-12-18T13:08:59;12.77;;;6.90;;
35552;SDS011;21656;46.054;13.614;2022-12-18T13:11:30;11.02;;;6.93;;
35552;SDS011;21656;46.054;13.614;2022-12-18T13:14:22;11.10;;;6.40;;
35552;SDS011;21656;46.054;13.614;2022-12-18T13:19:51;11.30;;;6.70;;
35552;SDS011;21656;46.054;13.614;2022-12-18T13:22:38;11.63;;;6.53;;
35552;SDS011;21656;46.054;13.614;2022-12-18T13:35:50;13.43;;;6.85;;
35552;SDS011;21656;46.054;13.614;2022-12-18T13:41:00;10.85;;;6.78;;
35552;SDS011;21656;46.054;13.614;2022-12-18T13:49:13;13.07;;;7.55;;
35552;SDS011;21656;46.054;13.614;2022-12-18T13:51:42;12.80;;;7.57;;
35552;SDS011;21656;46.054;13.614;2022-12-18T13:56:50;11.98;;;7.28;;
35552;SDS011;21656;46.054;13.614;2022-12-18T13:59:24;14.13;;;7.18;;
35552;SDS011;21656;46.054;13.614;2022-12-18T14:01:53;12.90;;;7.20;;
35552;SDS011;21656;46.054;13.614;2022-12-18T14:04:26;12.95;;;6.95;;
35552;SDS011;21656;46.054;13.614;2022-12-18T14:09:50;12.75;;;7.50;;
35552;SDS011;21656;46.054;13.614;2022-12-18T14:12:31;13.27;;;6.78;;
35552;SDS011;21656;46.054;13.614;2022-12-18T14:20:49;14.30;;;7.65;;
35552;SDS011;21656;46.054;13.614;2022-12-18T14:23:31;16.90;;;8.05;;
35552;SDS011;21656;46.054;13.614;2022-12-18T14:25:59;13.75;;;7.55;;
35552;SDS011;21656;46.054;13.614;2022-12-18T14:28:26;14.00;;;8.15;;
35552;SDS011;21656;46.054;13.614;2022-12-18T14:30:53;13.45;;;7.78;;
35552;SDS011;21656;46.054;13.614;2022-12-18T14:33:23;14.98;;;8.40;;
35552;SDS011;21656;46.054;13.614;2022-12-18T14:35:56;16.17;;;8.15;;
35552;SDS011;21656;46.054;13.614;2022-12-18T14:43:41;12.93;;;7.72;;
35552;SDS011;21656;46.054;13.614;2022-12-18T14:48:52;14.48;;;7.95;;
35552;SDS011;21656;46.054;13.614;2022-12-18T14:53:49;17.23;;;8.48;;
35552;SDS011;21656;46.054;13.614;2022-12-18T14:56:21;13.50;;;7.95;;
35552;SDS011;21656;46.054;13.614;2022-12-18T14:58:56;14.80;;;8.20;;
35552;SDS011;21656;46.054;13.614;2022-12-18T15:01:35;14.80;;;7.85;;
35552;SDS011;21656;46.054;13.614;2022-12-18T15:04:04;14.32;;;7.70;;
35552;SDS011;21656;46.054;13.614;2022-12-18T15:06:47;15.00;;;7.90;;
35552;SDS011;21656;46.054;13.614;2022-12-18T15:09:26;16.95;;;8.63;;
35552;SDS011;21656;46.054;13.614;2022-12-18T15:11:56;14.70;;;8.43;;
35552;SDS011;21656;46.054;13.614;2022-12-18T15:14:35;14.98;;;7.97;;
35552;SDS011;21656;46.054;13.614;2022-12-18T15:17:06;14.70;;;8.48;;
35552;SDS011;21656;46.054;13.614;2022-12-18T15:19:43;14.48;;;8.27;;
35552;SDS011;21656;46.054;13.614;2022-12-18T15:22:18;13.45;;;7.68;;
35552;SDS011;21656;46.054;13.614;2022-12-18T15:24:46;13.65;;;8.43;;
35552;SDS011;21656;46.054;13.614;2022-12-18T15:27:23;15.65;;;8.55;;
35552;SDS011;21656;46.054;13.614;2022-12-18T15:29:59;14.23;;;8.35;;
35552;SDS011;21656;46.054;13.614;2022-12-18T15:32:42;15.48;;;8.88;;
35552;SDS011;21656;46.054;13.614;2022-12-18T15:37:36;15.63;;;9.40;;
35552;SDS011;21656;46.054;13.614;2022-12-18T15:40:07;16.50;;;8.75;;
35552;SDS011;21656;46.054;13.614;2022-12-18T15:42:37;17.98;;;9.35;;
35552;SDS011;21656;46.054;13.614;2022-12-18T15:45:21;19.88;;;9.63;;
35552;SDS011;21656;46.054;13.614;2022-12-18T15:47:47;14.60;;;8.13;;
35552;SDS011;21656;46.054;13.614;2022-12-18T15:50:13;15.82;;;9.32;;
35552;SDS011;21656;46.054;13.614;2022-12-18T15:52:40;14.75;;;8.45;;
35552;SDS011;21656;46.054;13.614;2022-12-18T15:55:17;16.45;;;9.00;;
35552;SDS011;21656;46.054;13.614;2022-12-18T15:58:04;15.48;;;8.95;;
35552;SDS011;21656;46.054;13.614;2022-12-18T16:00:31;18.60;;;10.38;;
35552;SDS011;21656;46.054;13.614;2022-12-18T16:02:58;21.05;;;10.23;;
35552;SDS011;21656;46.054;13.614;2022-12-18T16:05:24;16.33;;;9.05;;
35552;SDS011;21656;46.054;13.614;2022-12-18T16:07:52;15.85;;;8.95;;
35552;SDS011;21656;46.054;13.614;2022-12-18T16:10:19;19.80;;;9.38;;
35552;SDS011;21656;46.054;13.614;2022-12-18T16:12:45;20.42;;;10.55;;
35552;SDS011;21656;46.054;13.614;2022-12-18T16:15:14;15.63;;;8.73;;
35552;SDS011;21656;46.054;13.614;2022-12-18T16:17:41;17.05;;;9.38;;
35552;SDS011;21656;46.054;13.614;2022-12-18T16:20:16;17.92;;;9.18;;
35552;SDS011;21656;46.054;13.614;2022-12-18T16:22:43;18.63;;;9.85;;
35552;SDS011;21656;46.054;13.614;2022-12-18T16:25:20;19.70;;;9.60;;
35552;SDS011;21656;46.054;13.614;2022-12-18T16:27:48;16.95;;;9.73;;
35552;SDS011;21656;46.054;13.614;2022-12-18T16:30:15;18.20;;;10.00;;
35552;SDS011;21656;46.054;13.614;2022-12-18T16:32:42;17.92;;;9.27;;
35552;SDS011;21656;46.054;13.614;2022-12-18T16:35:11;16.58;;;8.70;;
35552;SDS011;21656;46.054;13.614;2022-12-18T16:37:38;16.33;;;8.90;;
35552;SDS011;21656;46.054;13.614;2022-12-18T16:40:06;18.17;;;9.75;;
35552;SDS011;21656;46.054;13.614;2022-12-18T16:42:34;17.38;;;9.68;;
35552;SDS011;21656;46.054;13.614;2022-12-18T16:45:02;16.42;;;9.52;;
35552;SDS011;21656;46.054;13.614;2022-12-18T16:47:28;19.75;;;9.50;;
35552;SDS011;21656;46.054;13.614;2022-12-18T16:49:54;19.05;;;9.57;;
35552;SDS011;21656;46.054;13.614;2022-12-18T16:52:19;17.10;;;9.35;;
35552;SDS011;21656;46.054;13.614;2022-12-18T16:54:46;18.48;;;10.35;;
35552;SDS011;21656;46.054;13.614;2022-12-18T16:57:14;20.05;;;9.73;;
35552;SDS011;21656;46.054;13.614;2022-12-18T16:59:42;18.13;;;9.55;;
35552;SDS011;21656;46.054;13.614;2022-12-18T17:02:17;21.27;;;11.23;;
35552;SDS011;21656;46.054;13.614;2022-12-18T17:04:48;17.48;;;9.35;;
35552;SDS011;21656;46.054;13.614;2022-12-18T17:07:14;22.30;;;10.32;;
35552;SDS011;21656;46.054;13.614;2022-12-18T17:09:41;19.77;;;10.73;;
35552;SDS011;21656;46.054;13.614;2022-12-18T17:12:07;19.40;;;9.55;;
35552;SDS011;21656;46.054;13.614;2022-12-18T17:14:33;20.77;;;10.63;;
35552;SDS011;21656;46.054;13.614;2022-12-18T17:16:59;19.88;;;10.68;;
35552;SDS011;21656;46.054;13.614;2022-12-18T17:19:26;18.08;;;9.43;;
35552;SDS011;21656;46.054;13.614;2022-12-18T17:21:52;21.23;;;10.32;;
35552;SDS011;21656;46.054;13.614;2022-12-18T17:24:19;18.27;;;10.43;;
35552;SDS011;21656;46.054;13.614;2022-12-18T17:26:46;19.88;;;10.48;;
35552;SDS011;21656;46.054;13.614;2022-12-18T17:29:15;18.00;;;10.25;;
35552;SDS011;21656;46.054;13.614;2022-12-18T17:31:42;20.50;;;10.25;;
35552;SDS011;21656;46.054;13.614;2022-12-18T17:34:08;19.17;;;10.38;;
35552;SDS011;21656;46.054;13.614;2022-12-18T17:36:35;19.75;;;10.48;;
35552;SDS011;21656;46.054;13.614;2022-12-18T17:39:02;19.05;;;10.00;;
35552;SDS011;21656;46.054;13.614;2022-12-18T17:41:29;16.63;;;9.05;;
35552;SDS011;21656;46.054;13.614;2022-12-18T17:43:56;17.98;;;9.65;;
35552;SDS011;21656;46.054;13.614;2022-12-18T17:46:24;19.27;;;10.18;;
35552;SDS011;21656;46.054;13.614;2022-12-18T17:48:51;16.27;;;10.00;;
35552;SDS011;21656;46.054;13.614;2022-12-18T17:51:20;17.75;;;9.55;;
35552;SDS011;21656;46.054;13.614;2022-12-18T17:53:45;18.77;;;10.43;;
35552;SDS011;21656;46.054;13.614;2022-12-18T17:56:12;19.05;;;10.98;;
35552;SDS011;21656;46.054;13.614;2022-12-18T17:58:38;20.73;;;10.88;;
35552;SDS011;21656;46.054;13.614;2022-12-18T18:01:05;21.13;;;10.40;;
35552;SDS011;21656;46.054;13.614;2022-12-18T18:03:32;18.10;;;10.05;;
35552;SDS011;21656;46.054;13.614;2022-12-18T18:05:58;18.73;;;10.35;;
35552;SDS011;21656;46.054;13.614;2022-12-18T18:08:25;24.27;;;11.30;;
35552;SDS011;21656;46.054;13.614;2022-12-18T18:10:52;22.70;;;11.38;;
35552;SDS011;21656;46.054;13.614;2022-12-18T18:13:19;19.70;;;10.50;;
35552;SDS011;21656;46.054;13.614;2022-12-18T18:16:06;23.00;;;11.05;;
35552;SDS011;21656;46.054;13.614;2022-12-18T18:18:32;18.60;;;11.07;;
35552;SDS011;21656;46.054;13.614;2022-12-18T18:21:02;24.80;;;13.13;;
35552;SDS011;21656;46.054;13.614;2022-12-18T18:23:31;20.73;;;11.45;;
35552;SDS011;21656;46.054;13.614;2022-12-18T18:26:02;21.17;;;10.07;;
35552;SDS011;21656;46.054;13.614;2022-12-18T18:28:34;20.90;;;10.25;;
35552;SDS011;21656;46.054;13.614;2022-12-18T18:31:04;19.73;;;10.80;;
35552;SDS011;21656;46.054;13.614;2022-12-18T18:33:31;22.80;;;11.65;;
35552;SDS011;21656;46.054;13.614;2022-12-18T18:35:58;22.92;;;11.48;;
35552;SDS011;21656;46.054;13.614;2022-12-18T18:38:26;21.92;;;11.18;;
35552;SDS011;21656;46.054;13.614;2022-12-18T18:40:57;25.08;;;11.30;;
35552;SDS011;21656;46.054;13.614;2022-12-18T18:43:27;18.60;;;10.38;;
35552;SDS011;21656;46.054;13.614;2022-12-18T18:45:54;25.27;;;11.45;;
35552;SDS011;21656;46.054;13.614;2022-12-18T18:48:21;20.73;;;10.98;;
35552;SDS011;21656;46.054;13.614;2022-12-18T18:50:56;18.63;;;10.45;;
35552;SDS011;21656;46.054;13.614;2022-12-18T18:53:36;22.02;;;11.32;;
35552;SDS011;21656;46.054;13.614;2022-12-18T18:56:03;21.63;;;10.98;;
35552;SDS011;21656;46.054;13.614;2022-12-18T18:58:32;22.05;;;10.65;;
35552;SDS011;21656;46.054;13.614;2022-12-18T19:01:03;23.17;;;11.70;;
35552;SDS011;21656;46.054;13.614;2022-12-18T19:03:31;23.40;;;11.40;;
35552;SDS011;21656;46.054;13.614;2022-12-18T19:05:58;18.08;;;10.13;;
35552;SDS011;21656;46.054;13.614;2022-12-18T19:08:29;20.15;;;10.35;;
35552;SDS011;21656;46.054;13.614;2022-12-18T19:10:59;19.27;;;10.90;;
35552;SDS011;21656;46.054;13.614;2022-12-18T19:13:27;18.38;;;10.02;;
35552;SDS011;21656;46.054;13.614;2022-12-18T19:16:04;22.88;;;9.80;;
35552;SDS011;21656;46.054;13.614;2022-12-18T19:18:31;24.65;;;11.40;;
35552;SDS011;21656;46.054;13.614;2022-12-18T19:20:58;20.13;;;10.75;;
35552;SDS011;21656;46.054;13.614;2022-12-18T19:23:26;20.65;;;11.68;;
35552;SDS011;21656;46.054;13.614;2022-12-18T19:25:53;19.52;;;10.85;;
35552;SDS011;21656;46.054;13.614;2022-12-18T19:28:20;20.25;;;10.38;;
35552;SDS011;21656;46.054;13.614;2022-12-18T19:30:51;22.02;;;10.63;;
35552;SDS011;21656;46.054;13.614;2022-12-18T19:33:19;21.83;;;10.80;;
35552;SDS011;21656;46.054;13.614;2022-12-18T19:35:46;20.70;;;11.20;;
35552;SDS011;21656;46.054;13.614;2022-12-18T19:38:13;20.20;;;11.15;;
35552;SDS011;21656;46.054;13.614;2022-12-18T19:40:39;20.35;;;10.85;;
35552;SDS011;21656;46.054;13.614;2022-12-18T19:43:06;23.23;;;11.25;;
35552;SDS011;21656;46.054;13.614;2022-12-18T19:45:33;16.45;;;9.32;;
35552;SDS011;21656;46.054;13.614;2022-12-18T19:47:58;22.27;;;10.45;;
35552;SDS011;21656;46.054;13.614;2022-12-18T19:50:24;18.80;;;10.73;;
35552;SDS011;21656;46.054;13.614;2022-12-18T19:52:50;21.58;;;11.15;;
35552;SDS011;21656;46.054;13.614;2022-12-18T19:55:16;21.55;;;10.95;;
35552;SDS011;21656;46.054;13.614;2022-12-18T19:57:42;19.75;;;10.95;;
35552;SDS011;21656;46.054;13.614;2022-12-18T20:00:08;23.15;;;11.57;;
35552;SDS011;21656;46.054;13.614;2022-12-18T20:02:34;22.17;;;11.05;;
35552;SDS011;21656;46.054;13.614;2022-12-18T20:05:10;20.15;;;11.25;;
35552;SDS011;21656;46.054;13.614;2022-12-18T20:07:37;20.70;;;10.82;;
35552;SDS011;21656;46.054;13.614;2022-12-18T20:10:04;21.70;;;10.25;;
35552;SDS011;21656;46.054;13.614;2022-12-18T20:12:30;22.73;;;11.25;;
35552;SDS011;21656;46.054;13.614;2022-12-18T20:14:56;20.17;;;10.98;;
35552;SDS011;21656;46.054;13.614;2022-12-18T20:17:22;18.77;;;10.40;;
35552;SDS011;21656;46.054;13.614;2022-12-18T20:19:47;21.13;;;10.38;;
35552;SDS011;21656;46.054;13.614;2022-12-18T20:22:13;23.40;;;11.02;;
35552;SDS011;21656;46.054;13.614;2022-12-18T20:24:38;19.55;;;10.27;;
35552;SDS011;21656;46.054;13.614;2022-12-18T20:27:04;22.88;;;11.13;;
35552;SDS011;21656;46.054;13.614;2022-12-18T20:29:29;18.67;;;10.13;;
35552;SDS011;21656;46.054;13.614;2022-12-18T20:31:55;20.17;;;10.98;;
35552;SDS011;21656;46.054;13.614;2022-12-18T20:34:20;19.70;;;11.13;;
35552;SDS011;21656;46.054;13.614;2022-12-18T20:36:46;21.35;;;10.38;;
35552;SDS011;21656;46.054;13.614;2022-12-18T20:39:11;22.67;;;11.55;;
35552;SDS011;21656;46.054;13.614;2022-12-18T20:41:37;18.83;;;10.63;;
35552;SDS011;21656;46.054;13.614;2022-12-18T20:44:02;21.52;;;10.63;;
35552;SDS011;21656;46.054;13.614;2022-12-18T20:46:28;21.77;;;10.48;;
35552;SDS011;21656;46.054;13.614;2022-12-18T20:48:53;22.73;;;10.43;;
35552;SDS011;21656;46.054;13.614;2022-12-18T20:51:21;21.77;;;9.93;;
35552;SDS011;21656;46.054;13.614;2022-12-18T20:53:46;17.73;;;9.13;;
35552;SDS011;21656;46.054;13.614;2022-12-18T20:56:17;21.60;;;11.05;;
35552;SDS011;21656;46.054;13.614;2022-12-18T20:58:46;21.52;;;10.40;;
35552;SDS011;21656;46.054;13.614;2022-12-18T21:01:14;20.95;;;11.02;;
35552;SDS011;21656;46.054;13.614;2022-12-18T21:03:42;18.48;;;10.82;;
35552;SDS011;21656;46.054;13.614;2022-12-18T21:06:10;20.48;;;10.43;;
35552;SDS011;21656;46.054;13.614;2022-12-18T21:08:36;18.38;;;9.82;;
35552;SDS011;21656;46.054;13.614;2022-12-18T21:14:12;20.65;;;9.95;;
35552;SDS011;21656;46.054;13.614;2022-12-18T21:16:43;23.33;;;10.65;;
35552;SDS011;21656;46.054;13.614;2022-12-18T21:19:14;20.30;;;9.95;;
35552;SDS011;21656;46.054;13.614;2022-12-18T21:21:42;22.08;;;11.02;;
35552;SDS011;21656;46.054;13.614;2022-12-18T21:24:08;18.90;;;10.00;;
35552;SDS011;21656;46.054;13.614;2022-12-18T21:26:35;19.65;;;9.90;;
35552;SDS011;21656;46.054;13.614;2022-12-18T21:29:03;21.20;;;11.13;;
35552;SDS011;21656;46.054;13.614;2022-12-18T21:31:32;20.73;;;10.40;;
35552;SDS011;21656;46.054;13.614;2022-12-18T21:33:59;22.92;;;11.25;;
35552;SDS011;21656;46.054;13.614;2022-12-18T21:36:25;21.80;;;10.27;;
35552;SDS011;21656;46.054;13.614;2022-12-18T21:38:51;20.95;;;9.95;;
35552;SDS011;21656;46.054;13.614;2022-12-18T21:41:18;23.17;;;10.98;;
35552;SDS011;21656;46.054;13.614;2022-12-18T21:46:30;22.40;;;10.68;;
35552;SDS011;21656;46.054;13.614;2022-12-18T21:48:56;19.90;;;10.48;;
35552;SDS011;21656;46.054;13.614;2022-12-18T21:51:21;19.33;;;9.98;;
35552;SDS011;21656;46.054;13.614;2022-12-18T21:53:46;22.75;;;10.15;;
35552;SDS011;21656;46.054;13.614;2022-12-18T21:56:12;23.83;;;10.98;;
35552;SDS011;21656;46.054;13.614;2022-12-18T21:58:37;21.73;;;10.13;;
35552;SDS011;21656;46.054;13.614;2022-12-18T22:01:02;21.13;;;9.63;;
35552;SDS011;21656;46.054;13.614;2022-12-18T22:03:28;18.58;;;9.50;;
35552;SDS011;21656;46.054;13.614;2022-12-18T22:05:55;19.23;;;9.85;;
35552;SDS011;21656;46.054;13.614;2022-12-18T22:08:22;20.48;;;9.98;;
35552;SDS011;21656;46.054;13.614;2022-12-18T22:10:47;19.13;;;9.93;;
35552;SDS011;21656;46.054;13.614;2022-12-18T22:13:12;19.30;;;9.60;;
35552;SDS011;21656;46.054;13.614;2022-12-18T22:15:38;16.42;;;9.48;;
35552;SDS011;21656;46.054;13.614;2022-12-18T22:18:03;16.15;;;9.43;;
35552;SDS011;21656;46.054;13.614;2022-12-18T22:20:28;21.33;;;10.45;;
35552;SDS011;21656;46.054;13.614;2022-12-18T22:22:54;17.38;;;8.43;;
35552;SDS011;21656;46.054;13.614;2022-12-18T22:25:19;15.82;;;8.25;;
35552;SDS011;21656;46.054;13.614;2022-12-18T22:27:45;17.35;;;8.95;;
35552;SDS011;21656;46.054;13.614;2022-12-18T22:30:30;16.70;;;9.02;;
35552;SDS011;21656;46.054;13.614;2022-12-18T22:32:55;17.88;;;9.10;;
35552;SDS011;21656;46.054;13.614;2022-12-18T22:35:21;17.95;;;8.10;;
35552;SDS011;21656;46.054;13.614;2022-12-18T22:37:46;15.90;;;8.77;;
35552;SDS011;21656;46.054;13.614;2022-12-18T22:40:18;18.63;;;9.25;;
35552;SDS011;21656;46.054;13.614;2022-12-18T22:42:46;19.50;;;9.75;;
35552;SDS011;21656;46.054;13.614;2022-12-18T22:45:12;15.68;;;8.27;;
35552;SDS011;21656;46.054;13.614;2022-12-18T22:47:38;18.92;;;8.85;;
35552;SDS011;21656;46.054;13.614;2022-12-18T22:50:03;15.43;;;7.70;;
35552;SDS011;21656;46.054;13.614;2022-12-18T22:52:29;17.92;;;9.13;;
35552;SDS011;21656;46.054;13.614;2022-12-18T22:54:55;18.05;;;8.40;;
35552;SDS011;21656;46.054;13.614;2022-12-18T22:57:20;16.08;;;8.73;;
35552;SDS011;21656;46.054;13.614;2022-12-18T22:59:46;15.70;;;7.90;;
35552;SDS011;21656;46.054;13.614;2022-12-18T23:02:12;13.30;;;7.68;;
35552;SDS011;21656;46.054;13.614;2022-12-18T23:04:37;14.25;;;8.15;;
35552;SDS011;21656;46.054;13.614;2022-12-18T23:07:03;17.50;;;8.55;;
35552;SDS011;21656;46.054;13.614;2022-12-18T23:09:29;18.08;;;8.05;;
35552;SDS011;21656;46.054;13.614;2022-12-18T23:11:55;18.83;;;8.70;;
35552;SDS011;21656;46.054;13.614;2022-12-18T23:14:20;18.90;;;8.25;;
35552;SDS011;21656;46.054;13.614;2022-12-18T23:16:46;19.63;;;8.40;;
35552;SDS011;21656;46.054;13.614;2022-12-18T23:19:11;17.77;;;8.40;;
35552;SDS011;21656;46.054;13.614;2022-12-18T23:21:37;14.82;;;8.48;;
35552;SDS011;21656;46.054;13.614;2022-12-18T23:24:02;20.23;;;8.85;;
35552;SDS011;21656;46.054;13.614;2022-12-18T23:26:28;19.52;;;9.48;;
35552;SDS011;21656;46.054;13.614;2022-12-18T23:28:53;16.17;;;8.32;;
35552;SDS011;21656;46.054;13.614;2022-12-18T23:31:27;19.23;;;8.32;;
35552;SDS011;21656;46.054;13.614;2022-12-18T23:33:55;17.05;;;8.38;;
35552;SDS011;21656;46.054;13.614;2022-12-18T23:36:22;16.58;;;8.27;;
35552;SDS011;21656;46.054;13.614;2022-12-18T23:38:49;17.58;;;8.50;;
35552;SDS011;21656;46.054;13.614;2022-12-18T23:41:16;16.15;;;8.15;;
35552;SDS011;21656;46.054;13.614;2022-12-18T23:43:43;14.98;;;8.30;;
35552;SDS011;21656;46.054;13.614;2022-12-18T23:46:14;14.80;;;7.68;;
35552;SDS011;21656;46.054;13.614;2022-12-18T23:48:43;15.90;;;7.55;;
35552;SDS011;21656;46.054;13.614;2022-12-18T23:51:09;16.02;;;8.38;;
35552;SDS011;21656;46.054;13.614;2022-12-18T23:53:36;17.30;;;8.75;;
35552;SDS011;21656;46.054;13.614;2022-12-18T23:56:02;14.80;;;7.82;;
35552;SDS011;21656;46.054;13.614;2022-12-18T23:58:32;16.65;;;8.05;;
